sensor_id;sensor_type;location;lat;lon;timestamp;P1;durP1;ratioP1;P2;durP2;ratioP2
30215;SDS011;17028;47.642;8.070;2022-10-30T00:04:16;5.80;;;2.38;;
30215;SDS011;17028;47.642;8.070;2022-10-30T00:09:17;7.68;;;2.45;;
30215;SDS011;17028;47.642;8.070;2022-10-30T00:14:18;7.32;;;3.03;;
30215;SDS011;17028;47.642;8.070;2022-10-30T00:19:19;5.47;;;2.90;;
30215;SDS011;17028;47.642;8.070;2022-10-30T00:24:20;6.20;;;3.10;;
30215;SDS011;17028;47.642;8.070;2022-10-30T00:29:21;6.50;;;2.78;;
30215;SDS011;17028;47.642;8.070;2022-10-30T00:34:25;8.37;;;2.83;;
30215;SDS011;17028;47.642;8.070;2022-10-30T00:39:26;9.65;;;3.35;;
30215;SDS011;17028;47.642;8.070;2022-10-30T00:49:45;9.50;;;3.03;;
30215;SDS011;17028;47.642;8.070;2022-10-30T00:55:09;9.95;;;3.13;;
30215;SDS011;17028;47.642;8.070;2022-10-30T01:00:13;10.60;;;3.10;;
30215;SDS011;17028;47.642;8.070;2022-10-30T01:05:16;9.45;;;3.17;;
30215;SDS011;17028;47.642;8.070;2022-10-30T01:10:20;8.02;;;2.63;;
30215;SDS011;17028;47.642;8.070;2022-10-30T01:15:23;7.22;;;2.83;;
30215;SDS011;17028;47.642;8.070;2022-10-30T01:31:57;8.00;;;2.58;;
30215;SDS011;17028;47.642;8.070;2022-10-30T01:37:31;6.97;;;2.30;;
30215;SDS011;17028;47.642;8.070;2022-10-30T01:42:44;5.93;;;2.35;;
30215;SDS011;17028;47.642;8.070;2022-10-30T01:58:33;5.43;;;2.00;;
30215;SDS011;17028;47.642;8.070;2022-10-30T02:03:41;5.03;;;1.95;;
30215;SDS011;17028;47.642;8.070;2022-10-30T02:08:44;3.78;;;1.90;;
30215;SDS011;17028;47.642;8.070;2022-10-30T02:13:45;4.32;;;1.70;;
30215;SDS011;17028;47.642;8.070;2022-10-30T02:18:47;6.55;;;2.13;;
30215;SDS011;17028;47.642;8.070;2022-10-30T02:23:48;8.60;;;2.58;;
30215;SDS011;17028;47.642;8.070;2022-10-30T02:28:49;5.35;;;2.63;;
30215;SDS011;17028;47.642;8.070;2022-10-30T02:33:51;5.18;;;2.45;;
30215;SDS011;17028;47.642;8.070;2022-10-30T02:38:53;5.65;;;2.50;;
30215;SDS011;17028;47.642;8.070;2022-10-30T02:43:55;6.30;;;2.47;;
30215;SDS011;17028;47.642;8.070;2022-10-30T02:48:56;4.55;;;2.13;;
30215;SDS011;17028;47.642;8.070;2022-10-30T02:53:57;3.60;;;1.75;;
30215;SDS011;17028;47.642;8.070;2022-10-30T02:58:59;3.38;;;1.70;;
30215;SDS011;17028;47.642;8.070;2022-10-30T03:04:00;3.40;;;1.58;;
30215;SDS011;17028;47.642;8.070;2022-10-30T03:09:02;3.20;;;1.48;;
30215;SDS011;17028;47.642;8.070;2022-10-30T03:14:03;6.30;;;2.03;;
30215;SDS011;17028;47.642;8.070;2022-10-30T03:19:04;6.40;;;1.58;;
30215;SDS011;17028;47.642;8.070;2022-10-30T03:24:07;3.45;;;1.58;;
30215;SDS011;17028;47.642;8.070;2022-10-30T03:29:08;4.18;;;1.70;;
30215;SDS011;17028;47.642;8.070;2022-10-30T03:34:09;3.80;;;1.83;;
30215;SDS011;17028;47.642;8.070;2022-10-30T03:39:11;3.78;;;1.70;;
30215;SDS011;17028;47.642;8.070;2022-10-30T03:44:12;3.40;;;1.73;;
30215;SDS011;17028;47.642;8.070;2022-10-30T03:49:13;4.07;;;1.73;;
30215;SDS011;17028;47.642;8.070;2022-10-30T03:54:14;5.15;;;1.63;;
30215;SDS011;17028;47.642;8.070;2022-10-30T03:59:16;4.35;;;2.25;;
30215;SDS011;17028;47.642;8.070;2022-10-30T04:04:24;6.50;;;2.38;;
30215;SDS011;17028;47.642;8.070;2022-10-30T04:09:25;4.70;;;1.88;;
30215;SDS011;17028;47.642;8.070;2022-10-30T04:14:27;4.97;;;1.95;;
30215;SDS011;17028;47.642;8.070;2022-10-30T04:19:28;3.78;;;1.95;;
30215;SDS011;17028;47.642;8.070;2022-10-30T04:24:29;6.38;;;2.40;;
30215;SDS011;17028;47.642;8.070;2022-10-30T04:29:31;6.80;;;2.60;;
30215;SDS011;17028;47.642;8.070;2022-10-30T04:34:32;9.20;;;2.95;;
30215;SDS011;17028;47.642;8.070;2022-10-30T04:39:34;8.93;;;3.30;;
30215;SDS011;17028;47.642;8.070;2022-10-30T04:44:45;10.60;;;2.92;;
30215;SDS011;17028;47.642;8.070;2022-10-30T04:49:46;6.32;;;2.78;;
30215;SDS011;17028;47.642;8.070;2022-10-30T04:54:48;7.78;;;3.05;;
30215;SDS011;17028;47.642;8.070;2022-10-30T04:59:49;6.55;;;3.08;;
30215;SDS011;17028;47.642;8.070;2022-10-30T05:04:50;9.15;;;3.05;;
30215;SDS011;17028;47.642;8.070;2022-10-30T05:09:51;9.43;;;2.92;;
30215;SDS011;17028;47.642;8.070;2022-10-30T05:14:52;8.63;;;2.80;;
30215;SDS011;17028;47.642;8.070;2022-10-30T05:19:53;10.32;;;3.10;;
30215;SDS011;17028;47.642;8.070;2022-10-30T05:24:56;8.18;;;3.03;;
30215;SDS011;17028;47.642;8.070;2022-10-30T05:29:57;7.95;;;2.70;;
30215;SDS011;17028;47.642;8.070;2022-10-30T05:34:58;10.98;;;3.78;;
30215;SDS011;17028;47.642;8.070;2022-10-30T05:39:59;7.95;;;3.10;;
30215;SDS011;17028;47.642;8.070;2022-10-30T05:45:02;7.20;;;3.42;;
30215;SDS011;17028;47.642;8.070;2022-10-30T05:55:10;7.03;;;2.90;;
30215;SDS011;17028;47.642;8.070;2022-10-30T06:00:33;8.20;;;2.92;;
30215;SDS011;17028;47.642;8.070;2022-10-30T06:05:37;7.07;;;2.57;;
30215;SDS011;17028;47.642;8.070;2022-10-30T06:10:38;6.35;;;3.03;;
30215;SDS011;17028;47.642;8.070;2022-10-30T06:15:45;8.98;;;2.70;;
30215;SDS011;17028;47.642;8.070;2022-10-30T06:20:46;8.30;;;3.20;;
30215;SDS011;17028;47.642;8.070;2022-10-30T06:25:59;9.35;;;2.65;;
30215;SDS011;17028;47.642;8.070;2022-10-30T06:31:05;5.70;;;2.80;;
30215;SDS011;17028;47.642;8.070;2022-10-30T06:36:07;7.32;;;2.60;;
30215;SDS011;17028;47.642;8.070;2022-10-30T06:41:08;9.40;;;3.60;;
30215;SDS011;17028;47.642;8.070;2022-10-30T06:46:27;8.07;;;2.92;;
30215;SDS011;17028;47.642;8.070;2022-10-30T06:51:28;7.90;;;3.40;;
30215;SDS011;17028;47.642;8.070;2022-10-30T06:56:32;10.13;;;2.95;;
30215;SDS011;17028;47.642;8.070;2022-10-30T07:01:51;7.47;;;2.92;;
30215;SDS011;17028;47.642;8.070;2022-10-30T07:06:57;6.75;;;3.03;;
30215;SDS011;17028;47.642;8.070;2022-10-30T07:11:58;8.30;;;2.85;;
30215;SDS011;17028;47.642;8.070;2022-10-30T07:17:19;8.05;;;3.33;;
30215;SDS011;17028;47.642;8.070;2022-10-30T07:22:27;7.22;;;3.00;;
30215;SDS011;17028;47.642;8.070;2022-10-30T07:27:29;6.38;;;2.80;;
30215;SDS011;17028;47.642;8.070;2022-10-30T07:32:40;9.02;;;2.97;;
30215;SDS011;17028;47.642;8.070;2022-10-30T07:37:45;5.20;;;2.55;;
30215;SDS011;17028;47.642;8.070;2022-10-30T07:42:47;6.03;;;3.20;;
30215;SDS011;17028;47.642;8.070;2022-10-30T07:48:20;5.00;;;2.70;;
30215;SDS011;17028;47.642;8.070;2022-10-30T07:53:34;3.60;;;2.15;;
30215;SDS011;17028;47.642;8.070;2022-10-30T07:58:36;7.50;;;3.03;;
30215;SDS011;17028;47.642;8.070;2022-10-30T08:04:06;5.25;;;2.58;;
30215;SDS011;17028;47.642;8.070;2022-10-30T08:09:11;3.83;;;2.30;;
30215;SDS011;17028;47.642;8.070;2022-10-30T08:14:12;4.88;;;2.60;;
30215;SDS011;17028;47.642;8.070;2022-10-30T08:19:13;5.75;;;2.60;;
30215;SDS011;17028;47.642;8.070;2022-10-30T08:24:16;4.40;;;2.25;;
30215;SDS011;17028;47.642;8.070;2022-10-30T08:29:20;4.20;;;2.20;;
30215;SDS011;17028;47.642;8.070;2022-10-30T08:34:23;4.63;;;2.67;;
30215;SDS011;17028;47.642;8.070;2022-10-30T08:39:28;4.87;;;2.50;;
30215;SDS011;17028;47.642;8.070;2022-10-30T08:44:35;5.05;;;2.90;;
30215;SDS011;17028;47.642;8.070;2022-10-30T08:50:14;5.07;;;2.55;;
30215;SDS011;17028;47.642;8.070;2022-10-30T08:55:15;6.70;;;2.88;;
30215;SDS011;17028;47.642;8.070;2022-10-30T09:00:17;6.68;;;2.78;;
30215;SDS011;17028;47.642;8.070;2022-10-30T09:05:37;6.43;;;2.10;;
30215;SDS011;17028;47.642;8.070;2022-10-30T09:10:54;3.85;;;2.05;;
30215;SDS011;17028;47.642;8.070;2022-10-30T09:16:00;4.93;;;2.10;;
30215;SDS011;17028;47.642;8.070;2022-10-30T09:21:03;4.00;;;1.90;;
30215;SDS011;17028;47.642;8.070;2022-10-30T09:26:06;5.28;;;1.90;;
30215;SDS011;17028;47.642;8.070;2022-10-30T09:31:20;4.90;;;1.88;;
30215;SDS011;17028;47.642;8.070;2022-10-30T09:36:22;3.42;;;1.73;;
30215;SDS011;17028;47.642;8.070;2022-10-30T09:41:35;5.28;;;1.90;;
30215;SDS011;17028;47.642;8.070;2022-10-30T09:47:18;3.47;;;1.80;;
30215;SDS011;17028;47.642;8.070;2022-10-30T10:03:16;10.05;;;4.00;;
30215;SDS011;17028;47.642;8.070;2022-10-30T10:14:28;5.25;;;2.72;;
30215;SDS011;17028;47.642;8.070;2022-10-30T10:19:37;5.88;;;3.30;;
30215;SDS011;17028;47.642;8.070;2022-10-30T10:24:50;6.22;;;3.20;;
30215;SDS011;17028;47.642;8.070;2022-10-30T10:30:00;5.43;;;2.90;;
30215;SDS011;17028;47.642;8.070;2022-10-30T10:57:02;7.72;;;4.53;;
30215;SDS011;17028;47.642;8.070;2022-10-30T11:17:31;8.00;;;3.83;;
30215;SDS011;17028;47.642;8.070;2022-10-30T11:22:54;10.68;;;3.72;;
30215;SDS011;17028;47.642;8.070;2022-10-30T11:27:56;8.13;;;3.47;;
30215;SDS011;17028;47.642;8.070;2022-10-30T11:33:01;8.13;;;2.95;;
30215;SDS011;17028;47.642;8.070;2022-10-30T11:38:21;8.05;;;3.38;;
30215;SDS011;17028;47.642;8.070;2022-10-30T11:43:26;8.90;;;3.17;;
30215;SDS011;17028;47.642;8.070;2022-10-30T11:48:28;5.50;;;2.97;;
30215;SDS011;17028;47.642;8.070;2022-10-30T11:53:33;7.20;;;3.23;;
30215;SDS011;17028;47.642;8.070;2022-10-30T11:58:41;5.05;;;2.72;;
30215;SDS011;17028;47.642;8.070;2022-10-30T12:03:45;8.77;;;3.08;;
30215;SDS011;17028;47.642;8.070;2022-10-30T12:08:59;7.55;;;2.92;;
30215;SDS011;17028;47.642;8.070;2022-10-30T12:14:25;6.35;;;2.50;;
30215;SDS011;17028;47.642;8.070;2022-10-30T12:19:26;10.13;;;3.17;;
30215;SDS011;17028;47.642;8.070;2022-10-30T12:24:33;8.77;;;3.63;;
30215;SDS011;17028;47.642;8.070;2022-10-30T12:35:09;8.50;;;3.17;;
30215;SDS011;17028;47.642;8.070;2022-10-30T12:40:19;9.50;;;4.00;;
30215;SDS011;17028;47.642;8.070;2022-10-30T12:45:30;8.18;;;3.83;;
30215;SDS011;17028;47.642;8.070;2022-10-30T12:50:44;9.85;;;3.55;;
30215;SDS011;17028;47.642;8.070;2022-10-30T12:56:42;8.55;;;4.10;;
30215;SDS011;17028;47.642;8.070;2022-10-30T13:02:14;10.57;;;4.22;;
30215;SDS011;17028;47.642;8.070;2022-10-30T13:07:32;10.07;;;4.18;;
30215;SDS011;17028;47.642;8.070;2022-10-30T13:12:38;11.32;;;4.55;;
30215;SDS011;17028;47.642;8.070;2022-10-30T13:17:44;8.60;;;3.78;;
30215;SDS011;17028;47.642;8.070;2022-10-30T13:28:25;8.90;;;4.18;;
30215;SDS011;17028;47.642;8.070;2022-10-30T13:33:43;6.40;;;3.75;;
30215;SDS011;17028;47.642;8.070;2022-10-30T13:39:10;4.82;;;3.17;;
30215;SDS011;17028;47.642;8.070;2022-10-30T13:44:33;10.35;;;4.20;;
30215;SDS011;17028;47.642;8.070;2022-10-30T13:55:21;7.97;;;4.20;;
30215;SDS011;17028;47.642;8.070;2022-10-30T14:05:52;7.55;;;4.25;;
30215;SDS011;17028;47.642;8.070;2022-10-30T14:11:00;8.40;;;3.92;;
30215;SDS011;17028;47.642;8.070;2022-10-30T14:16:05;9.18;;;4.57;;
30215;SDS011;17028;47.642;8.070;2022-10-30T14:26:45;10.48;;;5.00;;
30215;SDS011;17028;47.642;8.070;2022-10-30T14:31:48;13.32;;;5.38;;
30215;SDS011;17028;47.642;8.070;2022-10-30T14:36:49;10.27;;;5.15;;
30215;SDS011;17028;47.642;8.070;2022-10-30T14:57:52;6.07;;;3.80;;
30215;SDS011;17028;47.642;8.070;2022-10-30T15:13:19;9.40;;;4.90;;
30215;SDS011;17028;47.642;8.070;2022-10-30T15:18:22;10.60;;;5.15;;
30215;SDS011;17028;47.642;8.070;2022-10-30T15:23:27;11.00;;;5.70;;
30215;SDS011;17028;47.642;8.070;2022-10-30T15:28:30;7.75;;;4.65;;
30215;SDS011;17028;47.642;8.070;2022-10-30T15:33:34;8.80;;;4.63;;
30215;SDS011;17028;47.642;8.070;2022-10-30T15:38:37;5.03;;;3.67;;
30215;SDS011;17028;47.642;8.070;2022-10-30T15:43:39;4.63;;;2.97;;
30215;SDS011;17028;47.642;8.070;2022-10-30T15:48:44;4.47;;;2.77;;
30215;SDS011;17028;47.642;8.070;2022-10-30T15:53:48;4.87;;;2.73;;
30215;SDS011;17028;47.642;8.070;2022-10-30T15:58:57;5.03;;;3.13;;
30215;SDS011;17028;47.642;8.070;2022-10-30T16:04:00;4.78;;;2.72;;
30215;SDS011;17028;47.642;8.070;2022-10-30T16:09:02;3.90;;;2.55;;
30215;SDS011;17028;47.642;8.070;2022-10-30T16:14:13;3.70;;;2.42;;
30215;SDS011;17028;47.642;8.070;2022-10-30T16:19:18;5.10;;;3.03;;
30215;SDS011;17028;47.642;8.070;2022-10-30T16:24:33;4.63;;;2.60;;
30215;SDS011;17028;47.642;8.070;2022-10-30T16:29:35;5.97;;;3.53;;
30215;SDS011;17028;47.642;8.070;2022-10-30T16:34:36;7.55;;;4.32;;
30215;SDS011;17028;47.642;8.070;2022-10-30T16:39:39;8.13;;;4.10;;
30215;SDS011;17028;47.642;8.070;2022-10-30T16:44:41;5.95;;;4.10;;
30215;SDS011;17028;47.642;8.070;2022-10-30T16:49:51;6.28;;;3.70;;
30215;SDS011;17028;47.642;8.070;2022-10-30T16:55:05;6.13;;;3.33;;
30215;SDS011;17028;47.642;8.070;2022-10-30T17:00:18;5.70;;;2.70;;
30215;SDS011;17028;47.642;8.070;2022-10-30T17:10:41;6.75;;;2.50;;
30215;SDS011;17028;47.642;8.070;2022-10-30T17:15:43;5.10;;;2.35;;
30215;SDS011;17028;47.642;8.070;2022-10-30T17:26:21;6.33;;;1.90;;
30215;SDS011;17028;47.642;8.070;2022-10-30T17:31:26;5.30;;;1.70;;
30215;SDS011;17028;47.642;8.070;2022-10-30T17:36:29;4.30;;;1.80;;
30215;SDS011;17028;47.642;8.070;2022-10-30T17:41:31;3.53;;;1.80;;
30215;SDS011;17028;47.642;8.070;2022-10-30T17:46:32;4.70;;;2.05;;
30215;SDS011;17028;47.642;8.070;2022-10-30T17:51:33;5.82;;;2.85;;
30215;SDS011;17028;47.642;8.070;2022-10-30T17:56:34;5.70;;;2.90;;
30215;SDS011;17028;47.642;8.070;2022-10-30T18:01:35;6.32;;;3.40;;
30215;SDS011;17028;47.642;8.070;2022-10-30T18:06:36;5.93;;;3.13;;
30215;SDS011;17028;47.642;8.070;2022-10-30T18:11:37;4.25;;;2.58;;
30215;SDS011;17028;47.642;8.070;2022-10-30T18:16:38;5.30;;;2.92;;
30215;SDS011;17028;47.642;8.070;2022-10-30T18:21:39;6.32;;;3.10;;
30215;SDS011;17028;47.642;8.070;2022-10-30T18:26:41;6.20;;;2.92;;
30215;SDS011;17028;47.642;8.070;2022-10-30T18:31:42;6.53;;;3.35;;
30215;SDS011;17028;47.642;8.070;2022-10-30T18:36:43;6.05;;;2.88;;
30215;SDS011;17028;47.642;8.070;2022-10-30T18:41:44;5.45;;;2.40;;
30215;SDS011;17028;47.642;8.070;2022-10-30T18:46:46;7.30;;;2.80;;
30215;SDS011;17028;47.642;8.070;2022-10-30T18:51:47;4.32;;;2.15;;
30215;SDS011;17028;47.642;8.070;2022-10-30T18:56:48;6.57;;;2.33;;
30215;SDS011;17028;47.642;8.070;2022-10-30T19:01:49;7.43;;;1.92;;
30215;SDS011;17028;47.642;8.070;2022-10-30T19:06:50;5.32;;;1.83;;
30215;SDS011;17028;47.642;8.070;2022-10-30T19:11:51;5.20;;;2.00;;
30215;SDS011;17028;47.642;8.070;2022-10-30T19:16:52;5.28;;;1.95;;
30215;SDS011;17028;47.642;8.070;2022-10-30T19:21:53;5.68;;;2.08;;
30215;SDS011;17028;47.642;8.070;2022-10-30T19:26:54;5.85;;;2.10;;
30215;SDS011;17028;47.642;8.070;2022-10-30T19:31:55;4.80;;;2.13;;
30215;SDS011;17028;47.642;8.070;2022-10-30T19:36:56;6.15;;;2.33;;
30215;SDS011;17028;47.642;8.070;2022-10-30T19:41:57;6.60;;;2.03;;
30215;SDS011;17028;47.642;8.070;2022-10-30T19:46:58;5.50;;;2.20;;
30215;SDS011;17028;47.642;8.070;2022-10-30T19:51:59;5.43;;;2.30;;
30215;SDS011;17028;47.642;8.070;2022-10-30T19:57:00;6.13;;;2.20;;
30215;SDS011;17028;47.642;8.070;2022-10-30T20:02:01;9.57;;;2.28;;
30215;SDS011;17028;47.642;8.070;2022-10-30T20:07:02;5.40;;;2.45;;
30215;SDS011;17028;47.642;8.070;2022-10-30T20:12:03;8.50;;;2.47;;
30215;SDS011;17028;47.642;8.070;2022-10-30T20:17:07;6.47;;;2.30;;
30215;SDS011;17028;47.642;8.070;2022-10-30T20:22:09;5.97;;;2.53;;
30215;SDS011;17028;47.642;8.070;2022-10-30T20:27:10;12.13;;;2.25;;
30215;SDS011;17028;47.642;8.070;2022-10-30T20:32:11;6.85;;;2.35;;
30215;SDS011;17028;47.642;8.070;2022-10-30T20:37:12;5.25;;;1.98;;
30215;SDS011;17028;47.642;8.070;2022-10-30T20:42:13;5.82;;;1.98;;
30215;SDS011;17028;47.642;8.070;2022-10-30T20:47:18;7.75;;;2.15;;
30215;SDS011;17028;47.642;8.070;2022-10-30T20:52:19;7.05;;;2.38;;
30215;SDS011;17028;47.642;8.070;2022-10-30T20:57:20;4.95;;;1.80;;
30215;SDS011;17028;47.642;8.070;2022-10-30T21:02:21;5.13;;;1.92;;
30215;SDS011;17028;47.642;8.070;2022-10-30T21:07:22;5.05;;;2.10;;
30215;SDS011;17028;47.642;8.070;2022-10-30T21:12:24;9.05;;;2.20;;
30215;SDS011;17028;47.642;8.070;2022-10-30T21:17:25;5.78;;;2.05;;
30215;SDS011;17028;47.642;8.070;2022-10-30T21:22:26;4.97;;;2.15;;
30215;SDS011;17028;47.642;8.070;2022-10-30T21:27:27;6.93;;;2.20;;
30215;SDS011;17028;47.642;8.070;2022-10-30T21:32:29;6.18;;;1.88;;
30215;SDS011;17028;47.642;8.070;2022-10-30T21:37:33;4.68;;;2.15;;
30215;SDS011;17028;47.642;8.070;2022-10-30T21:42:35;4.80;;;1.80;;
30215;SDS011;17028;47.642;8.070;2022-10-30T21:47:36;6.68;;;2.13;;
30215;SDS011;17028;47.642;8.070;2022-10-30T21:52:37;6.70;;;2.00;;
30215;SDS011;17028;47.642;8.070;2022-10-30T21:57:38;5.00;;;1.88;;
30215;SDS011;17028;47.642;8.070;2022-10-30T22:02:39;4.72;;;1.92;;
30215;SDS011;17028;47.642;8.070;2022-10-30T22:07:41;3.90;;;1.80;;
30215;SDS011;17028;47.642;8.070;2022-10-30T22:12:42;4.05;;;2.00;;
30215;SDS011;17028;47.642;8.070;2022-10-30T22:17:43;5.32;;;1.95;;
30215;SDS011;17028;47.642;8.070;2022-10-30T22:22:44;5.22;;;2.20;;
30215;SDS011;17028;47.642;8.070;2022-10-30T22:27:45;5.82;;;2.08;;
30215;SDS011;17028;47.642;8.070;2022-10-30T22:32:47;4.35;;;1.80;;
30215;SDS011;17028;47.642;8.070;2022-10-30T22:37:48;5.72;;;2.00;;
30215;SDS011;17028;47.642;8.070;2022-10-30T22:42:49;5.85;;;2.30;;
30215;SDS011;17028;47.642;8.070;2022-10-30T22:47:50;6.57;;;2.25;;
30215;SDS011;17028;47.642;8.070;2022-10-30T22:52:51;7.78;;;2.22;;
30215;SDS011;17028;47.642;8.070;2022-10-30T22:57:52;5.65;;;1.90;;
30215;SDS011;17028;47.642;8.070;2022-10-30T23:02:54;5.22;;;1.88;;
30215;SDS011;17028;47.642;8.070;2022-10-30T23:07:55;6.60;;;2.20;;
30215;SDS011;17028;47.642;8.070;2022-10-30T23:12:56;4.25;;;1.70;;
30215;SDS011;17028;47.642;8.070;2022-10-30T23:17:57;6.28;;;1.92;;
30215;SDS011;17028;47.642;8.070;2022-10-30T23:22:58;7.40;;;2.30;;
30215;SDS011;17028;47.642;8.070;2022-10-30T23:27:59;6.72;;;2.08;;
30215;SDS011;17028;47.642;8.070;2022-10-30T23:33:00;5.28;;;2.00;;
30215;SDS011;17028;47.642;8.070;2022-10-30T23:38:01;4.65;;;2.10;;
30215;SDS011;17028;47.642;8.070;2022-10-30T23:43:02;4.38;;;2.25;;
30215;SDS011;17028;47.642;8.070;2022-10-30T23:48:03;4.55;;;2.03;;
30215;SDS011;17028;47.642;8.070;2022-10-30T23:53:04;5.18;;;1.88;;
30215;SDS011;17028;47.642;8.070;2022-10-30T23:58:05;4.28;;;1.98;;
